Kings Canyon National Pk, California
Current Conditions -  °F | °C
As of 3:56 PM on Friday 21 Nov 2014 (Local Time) from KBIH Reporting Station
Clear Clear  
Wind Chill: 61°   Ceiling: Unl
Heat Index: 61°   Visibility: 10mi
Dew Point: 15°   Wind: 0mph
Humidity: 17%   Direction: NA
Pressure: 29.98"   Gusts: NA
Location:  36.7872°N, 118.66°W
Report Text: KBIH 212356Z AUTO 00000KT 10SM CLR 16/M09 A2998 RMK AO2 SLP135 T01611094 10172 20128 53001
Loading
Personal Weather Stations






























Interactive Weather Map New forecast layout! Learn more

10-Day Weather Forecast

Advertisements
Track Severe Weather on mobile